createdAt,value
2017-10-07T00:01:27.583Z,11.25
2017-10-07T00:03:56.692Z,11.22
2017-10-07T00:06:25.051Z,11.21
2017-10-07T00:08:53.379Z,11.34
2017-10-07T00:11:22.485Z,11.44
2017-10-07T00:13:51.616Z,11.41
2017-10-07T00:16:19.972Z,11.47
2017-10-07T00:18:49.071Z,11.55
2017-10-07T00:21:18.170Z,11.59
2017-10-07T00:23:46.532Z,11.52
2017-10-07T00:26:15.632Z,11.37
2017-10-07T00:28:44.768Z,11.31
2017-10-07T00:31:13.104Z,11.50
2017-10-07T00:33:42.239Z,11.53
2017-10-07T00:36:10.568Z,11.59
2017-10-07T00:38:38.914Z,11.63
2017-10-07T00:41:07.292Z,11.68
2017-10-07T00:43:35.624Z,11.79
2017-10-07T00:46:04.759Z,11.89
2017-10-07T00:48:33.103Z,11.98
2017-10-07T00:51:03.376Z,12.01
2017-10-07T00:53:31.705Z,11.95
2017-10-07T00:56:00.854Z,11.63
2017-10-07T00:58:29.186Z,11.64
2017-10-07T01:00:58.402Z,11.71
2017-10-07T01:03:27.529Z,11.73
2017-10-07T01:05:55.875Z,11.75
2017-10-07T01:08:25.000Z,11.82
2017-10-07T01:10:53.347Z,11.76
2017-10-07T01:13:22.452Z,11.81
2017-10-07T01:15:51.571Z,11.81
2017-10-07T01:18:19.911Z,11.85
2017-10-07T01:20:48.292Z,11.66
2017-10-07T01:23:16.635Z,11.66
2017-10-07T01:25:44.973Z,11.60
2017-10-07T01:28:14.106Z,11.43
2017-10-07T01:30:42.447Z,11.46
2017-10-07T01:33:11.580Z,11.48
2017-10-07T01:35:39.907Z,11.49
2017-10-07T01:38:08.259Z,11.48
2017-10-07T01:40:36.622Z,11.26
2017-10-07T01:43:05.556Z,11.00
2017-10-07T01:45:33.916Z,10.88
2017-10-07T01:48:02.247Z,10.97
2017-10-07T01:50:31.347Z,10.94
2017-10-07T01:53:00.479Z,10.89
2017-10-07T01:55:28.819Z,10.77
2017-10-07T01:57:57.939Z,10.88
2017-10-07T02:00:26.267Z,10.95
2017-10-07T02:02:54.626Z,10.95
2017-10-07T02:05:22.972Z,11.00
2017-10-07T02:07:51.308Z,10.94
2017-10-07T02:10:19.661Z,10.84
2017-10-07T02:12:48.004Z,10.91
2017-10-07T02:15:17.169Z,10.90
2017-10-07T02:17:45.507Z,10.92
2017-10-07T02:20:13.869Z,10.99
2017-10-07T02:22:42.213Z,11.11
2017-10-07T02:25:10.571Z,11.08
2017-10-07T02:27:38.907Z,11.00
2017-10-07T02:30:08.044Z,11.11
2017-10-07T02:32:36.375Z,11.18
2017-10-07T02:35:05.505Z,11.05
2017-10-07T02:37:33.840Z,10.92
2017-10-07T02:40:02.183Z,10.95
2017-10-07T02:42:30.552Z,10.85
2017-10-07T02:44:58.902Z,10.84
2017-10-07T02:47:28.035Z,10.92
2017-10-07T02:49:56.382Z,10.88
2017-10-07T02:52:24.744Z,10.98
2017-10-07T02:54:53.843Z,10.94
2017-10-07T02:57:22.944Z,11.02
2017-10-07T02:59:52.067Z,10.95
2017-10-07T03:02:20.416Z,11.04
2017-10-07T03:04:48.771Z,11.08
2017-10-07T03:07:17.119Z,11.22
2017-10-07T03:09:45.485Z,11.12
2017-10-07T03:12:13.819Z,11.33
2017-10-07T03:14:42.176Z,11.22
2017-10-07T03:17:11.484Z,11.31
2017-10-07T03:19:40.609Z,11.24
2017-10-07T03:22:08.964Z,11.44
2017-10-07T03:24:37.295Z,11.37
2017-10-07T03:27:06.426Z,11.33
2017-10-07T03:29:34.763Z,11.12
2017-10-07T03:32:03.888Z,11.08
2017-10-07T03:34:32.227Z,11.04
2017-10-07T03:37:00.568Z,10.93
2017-10-07T03:39:28.928Z,10.99
2017-10-07T03:41:57.270Z,10.90
2017-10-07T03:44:25.636Z,10.98
2017-10-07T03:46:53.971Z,11.00
2017-10-07T03:49:22.303Z,10.81
2017-10-07T03:51:50.667Z,10.91
2017-10-07T03:54:18.996Z,10.96
2017-10-07T03:56:48.128Z,10.99
2017-10-07T03:59:16.464Z,11.04
2017-10-07T04:01:45.573Z,11.04
2017-10-07T04:04:14.704Z,10.87
2017-10-07T04:06:43.030Z,10.95
2017-10-07T04:09:12.160Z,10.69
2017-10-07T04:11:40.499Z,10.79
2017-10-07T04:14:08.874Z,10.85
2017-10-07T04:16:37.215Z,10.88
2017-10-07T04:19:05.553Z,10.91
2017-10-07T04:21:34.679Z,10.98
2017-10-07T04:24:03.007Z,11.02
2017-10-07T04:26:31.362Z,11.12
2017-10-07T04:28:59.703Z,10.99
2017-10-07T04:31:28.803Z,11.01
2017-10-07T04:33:57.928Z,10.83
2017-10-07T04:36:26.262Z,10.98
2017-10-07T04:38:54.628Z,10.75
2017-10-07T04:41:22.954Z,10.79
2017-10-07T04:43:51.315Z,10.85
2017-10-07T04:46:20.419Z,10.79
2017-10-07T04:48:49.563Z,10.91
2017-10-07T04:51:17.900Z,10.91
2017-10-07T04:53:47.036Z,10.96
2017-10-07T04:56:15.385Z,11.04
2017-10-07T04:58:43.724Z,10.98
2017-10-07T05:01:12.103Z,11.08
2017-10-07T05:03:40.475Z,11.13
2017-10-07T05:06:08.828Z,11.01
2017-10-07T05:08:37.928Z,11.12
2017-10-07T05:11:06.291Z,11.08
2017-10-07T05:13:34.627Z,11.21
2017-10-07T05:16:02.987Z,11.30
2017-10-07T05:18:31.324Z,11.12
2017-10-07T05:20:59.680Z,11.15
2017-10-07T05:23:28.782Z,10.99
2017-10-07T05:25:57.914Z,10.91
2017-10-07T05:28:26.256Z,11.03
2017-10-07T05:30:55.364Z,11.07
2017-10-07T05:33:24.491Z,11.17
2017-10-07T05:35:52.821Z,11.20
2017-10-07T05:38:21.179Z,11.27
2017-10-07T05:40:49.515Z,11.07
2017-10-07T05:43:17.880Z,11.08
2017-10-07T05:45:46.981Z,11.09
2017-10-07T05:48:16.089Z,10.91
2017-10-07T05:50:45.223Z,10.97
2017-10-07T05:53:13.552Z,10.84
2017-10-07T05:55:42.693Z,10.79
2017-10-07T05:58:11.029Z,10.99
2017-10-07T06:00:40.142Z,10.88
2017-10-07T06:03:09.274Z,10.94
2017-10-07T06:05:37.618Z,10.97
2017-10-07T06:08:06.745Z,10.83
2017-10-07T06:10:35.078Z,10.83
2017-10-07T06:13:04.204Z,10.80
2017-10-07T06:15:32.569Z,10.89
2017-10-07T06:18:01.681Z,10.80
2017-10-07T06:20:30.075Z,11.05
2017-10-07T06:22:58.403Z,11.22
2017-10-07T06:25:26.748Z,11.20
2017-10-07T06:27:55.100Z,11.14
2017-10-07T06:30:24.199Z,11.27
2017-10-07T06:32:52.563Z,11.22
2017-10-07T06:35:21.668Z,11.01
2017-10-07T06:37:50.768Z,11.11
2017-10-07T06:40:19.883Z,11.31
2017-10-07T06:42:48.214Z,11.13
2017-10-07T06:45:16.588Z,11.20
2017-10-07T06:47:44.919Z,11.26
2017-10-07T06:50:13.316Z,11.24
2017-10-07T06:52:41.647Z,11.45
2017-10-07T06:55:09.993Z,11.31
2017-10-07T06:57:38.361Z,11.35
2017-10-07T07:00:06.703Z,11.36
2017-10-07T07:02:35.847Z,11.42
2017-10-07T07:05:04.198Z,11.42
2017-10-07T07:07:32.560Z,11.37
2017-10-07T07:10:01.657Z,11.38
2017-10-07T07:12:30.792Z,11.31
2017-10-07T07:14:59.120Z,11.21
2017-10-07T07:17:27.459Z,11.27
2017-10-07T07:19:55.816Z,11.35
2017-10-07T07:22:24.149Z,11.41
2017-10-07T07:24:52.507Z,11.21
2017-10-07T07:27:20.849Z,11.31
2017-10-07T07:29:49.976Z,11.45
2017-10-07T07:32:18.307Z,11.15
2017-10-07T07:34:47.417Z,11.02
2017-10-07T07:37:16.553Z,10.95
2017-10-07T07:39:44.910Z,10.80
2017-10-07T07:42:13.277Z,10.66
2017-10-07T07:44:42.387Z,10.80
2017-10-07T07:47:10.767Z,10.62
2017-10-07T07:49:39.112Z,10.79
2017-10-07T07:52:07.456Z,10.91
2017-10-07T07:54:35.831Z,10.97
2017-10-07T07:57:04.167Z,11.06
2017-10-07T07:59:33.296Z,11.13
2017-10-07T08:02:01.638Z,11.09
2017-10-07T08:04:29.991Z,11.02
2017-10-07T08:06:58.324Z,11.07
2017-10-07T08:09:27.466Z,11.03
2017-10-07T08:11:56.352Z,10.98
2017-10-07T08:14:24.723Z,11.30
2017-10-07T08:16:53.052Z,11.47
2017-10-07T08:19:21.392Z,11.56
2017-10-07T08:21:49.784Z,11.67
2017-10-07T08:24:18.128Z,11.69
2017-10-07T08:26:46.484Z,11.77
2017-10-07T08:29:15.592Z,11.99
2017-10-07T08:31:44.700Z,12.23
2017-10-07T08:34:13.072Z,12.19
2017-10-07T08:36:42.175Z,12.02
2017-10-07T08:39:10.543Z,12.01
2017-10-07T08:41:39.652Z,12.26
2017-10-07T08:44:07.988Z,12.05
2017-10-07T08:46:36.347Z,11.83
2017-10-07T08:49:05.441Z,11.87
2017-10-07T08:51:33.809Z,12.14
2017-10-07T08:54:02.149Z,12.33
2017-10-07T08:56:31.248Z,12.31
2017-10-07T08:59:00.385Z,12.06
2017-10-07T09:01:28.723Z,11.83
2017-10-07T09:03:57.083Z,11.80
2017-10-07T09:06:25.416Z,11.69
2017-10-07T09:08:53.752Z,11.71
2017-10-07T09:11:22.128Z,11.55
2017-10-07T09:13:50.469Z,11.43
2017-10-07T09:16:18.833Z,11.48
2017-10-07T09:18:47.166Z,11.41
2017-10-07T09:21:15.508Z,11.41
2017-10-07T09:23:43.880Z,11.33
2017-10-07T09:26:12.241Z,11.36
2017-10-07T09:28:41.344Z,11.55
2017-10-07T09:31:10.466Z,11.45
2017-10-07T09:33:38.824Z,11.47
2017-10-07T09:36:07.164Z,11.45
2017-10-07T09:38:35.536Z,11.41
2017-10-07T09:41:03.871Z,11.17
2017-10-07T09:43:33.360Z,11.04
2017-10-07T09:46:02.490Z,10.98
2017-10-07T09:48:30.829Z,11.18
2017-10-07T09:50:59.963Z,11.29
2017-10-07T09:53:28.305Z,11.27
2017-10-07T09:55:56.666Z,11.46
2017-10-07T09:58:25.023Z,11.63
2017-10-07T10:00:53.383Z,11.28
2017-10-07T10:03:21.711Z,11.28
2017-10-07T10:05:50.055Z,11.43
2017-10-07T10:08:18.426Z,11.55
2017-10-07T10:10:46.813Z,11.53
2017-10-07T10:13:15.175Z,11.50
2017-10-07T10:15:43.514Z,11.51
2017-10-07T10:18:11.875Z,11.66
2017-10-07T10:20:40.215Z,11.54
2017-10-07T10:23:08.562Z,11.43
2017-10-07T10:25:36.928Z,11.35
2017-10-07T10:28:05.272Z,11.42
2017-10-07T10:30:33.641Z,11.43
2017-10-07T10:33:01.981Z,11.30
2017-10-07T10:35:30.336Z,11.31
2017-10-07T10:37:58.673Z,11.33
2017-10-07T10:40:27.080Z,11.25
2017-10-07T10:42:55.413Z,11.34
2017-10-07T10:45:24.580Z,11.43
2017-10-07T10:47:52.940Z,11.55
2017-10-07T10:50:21.317Z,11.22
2017-10-07T10:52:49.683Z,11.42
2017-10-07T10:55:18.016Z,11.48
2017-10-07T10:57:46.376Z,11.58
2017-10-07T11:00:15.495Z,11.58
2017-10-07T11:02:43.836Z,11.45
2017-10-07T11:05:12.192Z,11.56
2017-10-07T11:07:40.538Z,11.68
2017-10-07T11:10:08.903Z,11.71
2017-10-07T11:12:37.235Z,11.71
2017-10-07T11:15:05.580Z,11.68
2017-10-07T11:17:33.959Z,11.48
2017-10-07T11:20:02.312Z,11.48
2017-10-07T11:22:30.688Z,11.49
2017-10-07T11:24:59.033Z,11.44
2017-10-07T11:27:28.160Z,11.37
2017-10-07T11:29:56.492Z,11.41
2017-10-07T11:32:24.820Z,11.50
2017-10-07T11:34:53.181Z,11.43
2017-10-07T11:37:21.521Z,11.52
2017-10-07T11:39:49.879Z,11.26
2017-10-07T11:42:18.211Z,11.40
2017-10-07T11:44:47.345Z,11.47
2017-10-07T11:47:15.692Z,11.41
2017-10-07T11:49:44.819Z,11.40
2017-10-07T11:52:13.150Z,11.45
2017-10-07T11:54:41.537Z,11.36
2017-10-07T11:57:10.647Z,11.36
2017-10-07T11:59:40.987Z,11.47
2017-10-07T12:02:09.359Z,11.54
2017-10-07T12:04:37.709Z,11.48
2017-10-07T12:07:06.073Z,11.52
2017-10-07T12:09:34.420Z,11.59
2017-10-07T12:12:02.780Z,11.55
2017-10-07T12:14:31.128Z,11.39
2017-10-07T12:16:59.495Z,11.58
2017-10-07T12:19:27.828Z,11.46
2017-10-07T12:21:56.166Z,11.57
2017-10-07T12:24:24.531Z,11.49
2017-10-07T12:26:52.859Z,11.54
2017-10-07T12:29:21.994Z,11.34
2017-10-07T12:31:50.327Z,11.47
2017-10-07T12:34:19.452Z,11.47
2017-10-07T12:36:47.792Z,11.52
2017-10-07T12:39:16.152Z,11.59
2017-10-07T12:41:44.508Z,11.63
2017-10-07T12:44:12.863Z,11.85
2017-10-07T12:46:41.208Z,11.70
2017-10-07T12:49:09.547Z,11.70
2017-10-07T12:51:37.899Z,11.78
2017-10-07T12:54:06.237Z,11.73
2017-10-07T12:56:34.600Z,11.80
2017-10-07T12:59:02.940Z,11.80
2017-10-07T13:01:31.300Z,11.72
2017-10-07T13:04:00.427Z,11.67
2017-10-07T13:06:28.765Z,11.53
2017-10-07T13:08:57.129Z,11.68
2017-10-07T13:11:25.468Z,11.58
2017-10-07T13:13:53.806Z,11.61
2017-10-07T13:16:22.181Z,11.67
2017-10-07T13:18:50.525Z,11.64
2017-10-07T13:21:18.886Z,11.60
2017-10-07T13:23:47.220Z,11.50
2017-10-07T13:26:15.562Z,11.59
2017-10-07T13:28:43.923Z,11.53
2017-10-07T13:31:12.289Z,11.65
2017-10-07T13:33:42.735Z,11.48
2017-10-07T13:36:11.142Z,11.53
2017-10-07T13:38:39.481Z,11.36
2017-10-07T13:41:08.584Z,11.51
2017-10-07T13:43:37.711Z,11.46
2017-10-07T13:46:06.041Z,11.35
2017-10-07T13:48:34.408Z,11.44
2017-10-07T13:51:02.736Z,11.45
2017-10-07T13:53:31.102Z,11.38
2017-10-07T13:56:00.204Z,11.26
2017-10-07T13:58:29.300Z,11.42
2017-10-07T14:00:58.427Z,11.28
2017-10-07T14:03:26.760Z,11.31
2017-10-07T14:05:55.894Z,11.24
2017-10-07T14:08:24.227Z,11.18
2017-10-07T14:10:52.600Z,11.20
2017-10-07T14:13:20.952Z,11.17
2017-10-07T14:15:49.287Z,11.27
2017-10-07T14:18:18.420Z,10.97
2017-10-07T14:20:46.768Z,11.01
2017-10-07T14:23:15.904Z,10.77
2017-10-07T14:25:45.398Z,10.85
2017-10-07T14:28:13.766Z,10.64
2017-10-07T14:30:42.107Z,10.78
2017-10-07T14:33:10.679Z,10.95
2017-10-07T14:35:39.141Z,10.84
2017-10-07T14:38:07.491Z,10.78
2017-10-07T14:40:36.628Z,10.97
2017-10-07T14:43:04.968Z,10.96
2017-10-07T14:45:34.099Z,10.78
2017-10-07T14:48:02.436Z,10.86
2017-10-07T14:50:30.824Z,10.83
2017-10-07T14:52:59.936Z,10.84
2017-10-07T14:55:28.304Z,10.85
2017-10-07T14:57:57.409Z,10.80
2017-10-07T15:00:25.749Z,10.65
2017-10-07T15:02:54.121Z,10.80
2017-10-07T15:05:22.475Z,10.69
2017-10-07T15:07:50.881Z,10.62
2017-10-07T15:10:19.211Z,10.64
2017-10-07T15:12:47.588Z,10.63
2017-10-07T15:15:15.936Z,10.61
2017-10-07T15:17:44.280Z,10.56
2017-10-07T15:20:12.647Z,10.63
2017-10-07T15:22:40.979Z,10.66
2017-10-07T15:25:09.351Z,10.71
2017-10-07T15:27:37.691Z,10.67
2017-10-07T15:30:06.060Z,10.58
2017-10-07T15:32:34.400Z,10.50
2017-10-07T15:35:02.738Z,10.52
2017-10-07T15:37:31.128Z,10.56
2017-10-07T15:39:59.463Z,10.44
2017-10-07T15:42:28.593Z,10.47
2017-10-07T15:44:56.932Z,10.37
2017-10-07T15:47:26.036Z,10.46
2017-10-07T15:49:55.186Z,10.55
2017-10-07T15:52:23.538Z,10.35
2017-10-07T15:54:51.902Z,10.39
2017-10-07T15:57:21.005Z,10.38
2017-10-07T15:59:49.384Z,10.30
2017-10-07T16:02:18.489Z,10.25
2017-10-07T16:04:46.851Z,10.18
2017-10-07T16:07:15.952Z,10.33
2017-10-07T16:09:45.048Z,10.40
2017-10-07T16:12:14.180Z,10.40
2017-10-07T16:14:42.523Z,10.26
2017-10-07T16:17:11.642Z,10.21
2017-10-07T16:19:39.989Z,10.23
2017-10-07T16:22:08.360Z,10.23
2017-10-07T16:24:36.689Z,9.99
2017-10-07T16:27:05.061Z,10.18
2017-10-07T16:29:33.395Z,10.14
2017-10-07T16:32:01.732Z,10.31
2017-10-07T16:34:30.087Z,10.22
2017-10-07T16:36:59.204Z,10.12
2017-10-07T16:39:27.580Z,10.14
2017-10-07T16:41:55.956Z,10.34
2017-10-07T16:44:25.086Z,10.12
2017-10-07T16:46:53.416Z,10.18
2017-10-07T16:49:22.524Z,10.11
2017-10-07T16:51:51.652Z,10.15
2017-10-07T16:54:19.994Z,10.22
2017-10-07T16:56:49.122Z,10.32
2017-10-07T16:59:17.464Z,10.12
2017-10-07T17:01:45.801Z,10.10
2017-10-07T17:04:14.165Z,10.23
2017-10-07T17:06:42.509Z,10.25
2017-10-07T17:09:11.646Z,10.34
2017-10-07T17:11:39.984Z,10.18
2017-10-07T17:14:09.073Z,10.13
2017-10-07T17:16:37.766Z,10.16
2017-10-07T17:19:06.101Z,10.29
2017-10-07T17:21:34.456Z,10.19
2017-10-07T17:24:02.824Z,10.16
2017-10-07T17:26:31.963Z,10.13
2017-10-07T17:29:00.289Z,10.06
2017-10-07T17:31:28.648Z,9.99
2017-10-07T17:33:56.981Z,10.09
2017-10-07T17:36:25.331Z,10.18
2017-10-07T17:38:53.667Z,10.18
2017-10-07T17:41:22.003Z,10.31
2017-10-07T17:43:51.455Z,10.39
2017-10-07T17:46:19.802Z,10.36
2017-10-07T17:48:48.180Z,10.42
2017-10-07T17:51:17.280Z,10.29
2017-10-07T17:53:45.620Z,10.31
2017-10-07T17:56:14.012Z,10.35
2017-10-07T17:58:42.354Z,10.48
2017-10-07T18:01:10.727Z,10.41
2017-10-07T18:03:39.100Z,10.34
2017-10-07T18:06:07.475Z,10.27
2017-10-07T18:08:35.877Z,10.22
2017-10-07T18:11:04.219Z,10.33
2017-10-07T18:13:33.320Z,10.14
2017-10-07T18:16:02.451Z,10.11
2017-10-07T18:18:30.788Z,10.15
2017-10-07T18:20:59.918Z,10.21
2017-10-07T18:23:29.297Z,10.25
2017-10-07T18:25:58.442Z,10.36
2017-10-07T18:28:26.779Z,10.41
2017-10-07T18:30:55.902Z,10.42
2017-10-07T18:33:24.260Z,10.34
2017-10-07T18:35:53.366Z,10.37
2017-10-07T18:38:21.727Z,10.40
2017-10-07T18:40:50.824Z,10.42
2017-10-07T18:43:19.976Z,10.36
2017-10-07T18:45:48.317Z,10.21
2017-10-07T18:48:16.688Z,10.29
2017-10-07T18:50:45.792Z,10.13
2017-10-07T18:53:14.891Z,10.06
2017-10-07T18:55:44.019Z,10.05
2017-10-07T18:58:12.356Z,10.06
2017-10-07T19:00:41.479Z,10.09
2017-10-07T19:03:09.804Z,10.18
2017-10-07T19:05:38.171Z,10.08
2017-10-07T19:08:06.505Z,10.12
2017-10-07T19:10:35.635Z,10.14
2017-10-07T19:13:03.978Z,10.14
2017-10-07T19:15:33.092Z,10.20
2017-10-07T19:18:01.424Z,10.28
2017-10-07T19:20:29.766Z,10.36
2017-10-07T19:22:58.133Z,10.42
2017-10-07T19:25:26.469Z,10.48
2017-10-07T19:27:54.827Z,10.52
2017-10-07T19:30:23.165Z,10.53
2017-10-07T19:32:51.525Z,10.45
2017-10-07T19:35:20.660Z,10.44
2017-10-07T19:37:49.051Z,10.47
2017-10-07T19:40:17.406Z,10.53
2017-10-07T19:42:45.807Z,10.45
2017-10-07T19:45:14.171Z,10.48
2017-10-07T19:47:42.562Z,10.64
2017-10-07T19:50:10.919Z,10.57
2017-10-07T19:52:40.041Z,10.56
2017-10-07T19:55:08.442Z,10.61
2017-10-07T19:57:36.815Z,10.61
2017-10-07T20:00:05.223Z,10.37
2017-10-07T20:02:33.591Z,10.58
2017-10-07T20:05:01.979Z,10.57
2017-10-07T20:07:30.356Z,10.66
2017-10-07T20:09:58.730Z,10.67
2017-10-07T20:12:27.128Z,10.68
2017-10-07T20:14:55.556Z,10.60
2017-10-07T20:17:24.083Z,10.64
2017-10-07T20:19:52.457Z,10.64
2017-10-07T20:22:21.584Z,10.71
2017-10-07T20:24:50.763Z,10.57
2017-10-07T20:27:19.174Z,10.53
2017-10-07T20:29:47.564Z,10.62
2017-10-07T20:32:16.795Z,10.61
2017-10-07T20:34:45.147Z,10.57
2017-10-07T20:37:14.417Z,10.62
2017-10-07T20:39:42.808Z,10.51
2017-10-07T20:42:11.297Z,10.46
2017-10-07T20:44:39.706Z,10.52
2017-10-07T20:47:08.157Z,10.55
2017-10-07T20:49:37.317Z,10.51
2017-10-07T20:52:05.715Z,10.61
2017-10-07T20:54:34.103Z,10.43
2017-10-07T20:57:02.484Z,10.54
2017-10-07T20:59:30.886Z,10.49
2017-10-07T21:01:59.282Z,10.42
2017-10-07T21:04:28.418Z,10.31
2017-10-07T21:06:56.831Z,10.44
2017-10-07T21:09:25.214Z,10.47
2017-10-07T21:11:53.596Z,10.42
2017-10-07T21:14:21.970Z,10.43
2017-10-07T21:16:50.307Z,10.55
2017-10-07T21:19:18.696Z,10.57
2017-10-07T21:21:47.072Z,10.63
2017-10-07T21:24:15.495Z,10.74
2017-10-07T21:26:43.915Z,10.84
2017-10-07T21:29:13.063Z,10.94
2017-10-07T21:31:41.440Z,10.89
2017-10-07T21:34:09.848Z,10.65
2017-10-07T21:36:38.315Z,10.73
2017-10-07T21:39:06.663Z,10.78
2017-10-07T21:41:35.000Z,10.81
2017-10-07T21:44:04.432Z,10.69
2017-10-07T21:46:33.544Z,10.65
2017-10-07T21:49:01.944Z,10.56
2017-10-07T21:51:30.296Z,10.37
2017-10-07T21:53:58.683Z,10.64
2017-10-07T21:56:27.131Z,10.64
2017-10-07T21:58:56.279Z,10.68
2017-10-07T22:01:24.659Z,10.60
2017-10-07T22:03:53.068Z,10.56
2017-10-07T22:06:21.451Z,10.56
2017-10-07T22:08:49.841Z,10.51
2017-10-07T22:11:18.249Z,10.57
2017-10-07T22:13:47.396Z,10.71
2017-10-07T22:16:15.764Z,10.68
2017-10-07T22:18:44.177Z,10.81
2017-10-07T22:21:12.543Z,10.75
2017-10-07T22:23:40.919Z,10.78
2017-10-07T22:26:09.323Z,10.99
2017-10-07T22:28:37.686Z,10.87
2017-10-07T22:31:06.060Z,10.78
2017-10-07T22:33:34.432Z,10.93
2017-10-07T22:36:02.796Z,10.90
2017-10-07T22:38:31.233Z,10.89
2017-10-07T22:40:59.589Z,10.87
2017-10-07T22:43:28.008Z,10.77
2017-10-07T22:45:57.157Z,10.74
2017-10-07T22:48:25.563Z,10.78
2017-10-07T22:50:53.952Z,10.89
2017-10-07T22:53:23.198Z,10.97
2017-10-07T22:55:51.638Z,10.94
2017-10-07T22:58:20.101Z,11.10
2017-10-07T23:00:48.458Z,11.12
2017-10-07T23:03:16.910Z,10.97
2017-10-07T23:05:45.309Z,10.81
2017-10-07T23:08:13.775Z,10.90
2017-10-07T23:10:42.939Z,11.07
2017-10-07T23:13:11.378Z,10.91
2017-10-07T23:15:39.744Z,10.88
2017-10-07T23:18:08.863Z,10.92
2017-10-07T23:20:37.273Z,10.99
2017-10-07T23:23:05.663Z,10.92
2017-10-07T23:25:34.075Z,10.69
2017-10-07T23:28:02.466Z,10.74
2017-10-07T23:30:31.626Z,10.61
2017-10-07T23:33:00.024Z,10.79
2017-10-07T23:35:28.418Z,10.74
2017-10-07T23:37:57.584Z,10.77
2017-10-07T23:40:26.004Z,10.93
2017-10-07T23:42:55.205Z,10.94
2017-10-07T23:45:24.354Z,10.95
2017-10-07T23:47:52.755Z,10.99
2017-10-07T23:50:21.136Z,11.09
2017-10-07T23:52:49.487Z,11.09
2017-10-07T23:55:17.885Z,11.09
2017-10-07T23:57:46.253Z,11.20
